X  Sluiten METAR luchtvaart weer gegevens      EDDK Cologne Bonn Airport
Temperatuur
6°C Temperatuur
5°C Dauwpunt
93% Vochtigheid



Wind
19 KM/U
12 MPH
5 M/S
10 KTS



330°
NNW
Huidig weer

Lichte Regen Lichte Regen
Luchtdruk 1019.98 (hPa) - 30.12 (inHg)
Zicht 5 (mijl) - 8 (km)
Vliegveld
Vliegveld code EDDK

Locatie : Cologne Bonn Airport
Afstand: 56 (km)

Metar:
EDDK 200850Z AUTO 33010KT 300V360 8000 -RA SCT008 BKN016 BKN021 06/05 Q1020 RERA TEMPO SHRA BKN009CB

Tijd: 2024-04-20 10:50 CEST